Terminal Aerodrome Forecast
Issued by NWS Anchorage, AK

Home | Current Version | Previous Version | Text Only | Print | Product List | Glossary On
Versions: 1 2 3 4 5 6 7 8 9 10 11 12 13 14 15 16 17 18 19 20 21 22 23 24 25 26 27 28 29 30 31 32 33 34 35 36 37 38 39 40 41 42 43 44 45 46 47 48 49 50
000
FTAK31 PANC 012338
TAFANC
TAF
PANC 012338Z 0200/0306 02006KT P6SM VCFG OVC007
      TEMPO 0200/0202 4SM BR OVC004
     FM020400 01005KT P6SM SCT100 BKN200
     FM020800 VRB04KT 3SM BR SCT005 BKN200
     FM021800 VRB04KT P6SM BKN200=

USA.gov is the U.S. government's official web portal to all federal, state and local government web resources and services.